sensor_id;sensor_type;location;lat;lon;timestamp;pressure;altitude;pressure_sealevel;temperature;humidity
49877;BME280;35771;48.978;9.294;2022-09-30T06:41:56;98402.25;;;4.60;100.00
49877;BME280;35771;48.978;9.294;2022-09-30T06:44:23;98401.94;;;4.72;100.00
49877;BME280;35771;48.978;9.294;2022-09-30T06:46:49;98409.38;;;4.94;100.00
49877;BME280;35771;48.978;9.294;2022-09-30T06:49:16;98384.09;;;5.04;100.00
49877;BME280;35771;48.978;9.294;2022-09-30T06:51:42;98386.47;;;5.23;100.00
49877;BME280;35771;48.978;9.294;2022-09-30T06:54:09;98392.84;;;5.30;100.00
49877;BME280;35771;48.978;9.294;2022-09-30T06:56:36;98409.47;;;5.67;100.00
49877;BME280;35771;48.978;9.294;2022-09-30T06:59:04;98408.59;;;5.75;100.00
49877;BME280;35771;48.978;9.294;2022-09-30T07:01:31;98395.16;;;5.66;100.00
49877;BME280;35771;48.978;9.294;2022-09-30T07:03:57;98400.50;;;5.75;100.00
49877;BME280;35771;48.978;9.294;2022-09-30T07:06:25;98399.47;;;5.84;100.00
49877;BME280;35771;48.978;9.294;2022-09-30T07:08:51;98404.50;;;5.95;100.00
49877;BME280;35771;48.978;9.294;2022-09-30T07:11:19;98413.22;;;6.14;100.00
49877;BME280;35771;48.978;9.294;2022-09-30T07:13:46;98421.72;;;6.42;100.00
49877;BME280;35771;48.978;9.294;2022-09-30T07:16:16;98405.03;;;6.38;100.00
49877;BME280;35771;48.978;9.294;2022-09-30T07:18:43;98413.25;;;6.45;100.00
49877;BME280;35771;48.978;9.294;2022-09-30T07:21:11;98432.97;;;6.54;100.00
49877;BME280;35771;48.978;9.294;2022-09-30T07:23:37;98433.00;;;6.46;100.00
49877;BME280;35771;48.978;9.294;2022-09-30T07:26:13;98439.00;;;6.56;100.00
49877;BME280;35771;48.978;9.294;2022-09-30T07:28:40;98443.72;;;6.62;100.00
49877;BME280;35771;48.978;9.294;2022-09-30T07:31:09;98451.38;;;6.82;100.00
49877;BME280;35771;48.978;9.294;2022-09-30T07:33:38;98455.84;;;6.98;100.00
49877;BME280;35771;48.978;9.294;2022-09-30T07:36:06;98437.03;;;7.04;100.00
49877;BME280;35771;48.978;9.294;2022-09-30T07:38:34;98458.53;;;7.21;100.00
49877;BME280;35771;48.978;9.294;2022-09-30T07:41:05;98432.03;;;7.16;100.00
49877;BME280;35771;48.978;9.294;2022-09-30T07:43:33;98454.75;;;7.30;100.00
49877;BME280;35771;48.978;9.294;2022-09-30T07:46:03;98438.22;;;7.25;100.00
49877;BME280;35771;48.978;9.294;2022-09-30T07:48:30;98454.22;;;7.35;100.00
49877;BME280;35771;48.978;9.294;2022-09-30T07:51:09;98435.22;;;7.43;100.00
49877;BME280;35771;48.978;9.294;2022-09-30T07:53:36;98438.94;;;7.42;100.00
49877;BME280;35771;48.978;9.294;2022-09-30T07:56:03;98480.69;;;7.62;100.00
49877;BME280;35771;48.978;9.294;2022-09-30T07:58:31;98440.94;;;7.63;100.00
49877;BME280;35771;48.978;9.294;2022-09-30T08:00:58;98464.84;;;7.74;100.00
49877;BME280;35771;48.978;9.294;2022-09-30T08:03:25;98451.97;;;7.76;100.00
49877;BME280;35771;48.978;9.294;2022-09-30T08:05:51;98465.81;;;7.96;100.00
49877;BME280;35771;48.978;9.294;2022-09-30T08:08:19;98465.16;;;7.94;100.00
49877;BME280;35771;48.978;9.294;2022-09-30T08:10:46;98469.25;;;8.20;100.00
49877;BME280;35771;48.978;9.294;2022-09-30T08:13:12;98465.09;;;8.32;100.00
49877;BME280;35771;48.978;9.294;2022-09-30T08:15:41;98463.22;;;8.33;100.00
49877;BME280;35771;48.978;9.294;2022-09-30T08:18:07;98480.03;;;8.58;100.00
49877;BME280;35771;48.978;9.294;2022-09-30T08:20:34;98495.06;;;8.61;100.00
49877;BME280;35771;48.978;9.294;2022-09-30T08:23:00;98481.69;;;8.59;100.00
49877;BME280;35771;48.978;9.294;2022-09-30T08:25:28;98485.97;;;8.68;100.00
49877;BME280;35771;48.978;9.294;2022-09-30T08:27:55;98491.13;;;8.78;100.00
49877;BME280;35771;48.978;9.294;2022-09-30T08:30:21;98493.84;;;9.00;100.00
49877;BME280;35771;48.978;9.294;2022-09-30T08:32:48;98494.97;;;9.06;100.00
49877;BME280;35771;48.978;9.294;2022-09-30T08:35:14;98484.13;;;9.06;100.00
49877;BME280;35771;48.978;9.294;2022-09-30T08:37:41;98499.19;;;9.08;100.00
49877;BME280;35771;48.978;9.294;2022-09-30T08:40:16;98491.44;;;9.05;100.00
49877;BME280;35771;48.978;9.294;2022-09-30T08:42:56;98500.66;;;9.11;100.00
49877;BME280;35771;48.978;9.294;2022-09-30T08:45:34;98498.28;;;9.23;100.00
49877;BME280;35771;48.978;9.294;2022-09-30T08:48:11;98489.16;;;9.30;100.00
49877;BME280;35771;48.978;9.294;2022-09-30T08:50:50;98501.53;;;9.54;100.00
49877;BME280;35771;48.978;9.294;2022-09-30T08:53:22;98501.97;;;9.58;100.00
49877;BME280;35771;48.978;9.294;2022-09-30T08:55:51;98491.63;;;9.47;100.00
49877;BME280;35771;48.978;9.294;2022-09-30T08:58:25;98487.69;;;9.49;100.00
49877;BME280;35771;48.978;9.294;2022-09-30T09:00:55;98497.69;;;9.70;100.00
49877;BME280;35771;48.978;9.294;2022-09-30T09:03:27;98500.34;;;9.64;100.00
49877;BME280;35771;48.978;9.294;2022-09-30T09:06:00;98480.97;;;9.67;100.00
49877;BME280;35771;48.978;9.294;2022-09-30T09:08:32;98500.28;;;9.79;100.00
49877;BME280;35771;48.978;9.294;2022-09-30T09:11:09;98489.66;;;9.84;100.00
49877;BME280;35771;48.978;9.294;2022-09-30T09:13:45;98492.81;;;9.87;100.00
49877;BME280;35771;48.978;9.294;2022-09-30T09:16:20;98510.16;;;10.15;100.00
49877;BME280;35771;48.978;9.294;2022-09-30T09:18:57;98506.38;;;10.16;100.00
49877;BME280;35771;48.978;9.294;2022-09-30T09:21:31;98490.06;;;10.09;100.00
49877;BME280;35771;48.978;9.294;2022-09-30T09:24:01;98483.84;;;10.15;100.00
49877;BME280;35771;48.978;9.294;2022-09-30T09:26:31;98503.38;;;10.32;100.00
49877;BME280;35771;48.978;9.294;2022-09-30T09:29:14;98492.31;;;10.34;100.00
49877;BME280;35771;48.978;9.294;2022-09-30T09:31:45;98509.34;;;10.49;100.00
49877;BME280;35771;48.978;9.294;2022-09-30T09:34:13;98477.53;;;10.43;100.00
49877;BME280;35771;48.978;9.294;2022-09-30T09:36:53;98472.28;;;10.35;100.00
49877;BME280;35771;48.978;9.294;2022-09-30T09:39:51;98509.22;;;10.64;100.00
49877;BME280;35771;48.978;9.294;2022-09-30T09:42:32;98480.56;;;10.61;100.00
49877;BME280;35771;48.978;9.294;2022-09-30T09:45:05;98504.31;;;10.88;100.00
49877;BME280;35771;48.978;9.294;2022-09-30T09:47:36;98493.44;;;10.88;100.00
49877;BME280;35771;48.978;9.294;2022-09-30T09:50:12;98486.97;;;10.95;100.00
49877;BME280;35771;48.978;9.294;2022-09-30T09:55:53;98486.22;;;11.22;100.00
49877;BME280;35771;48.978;9.294;2022-09-30T09:58:21;98494.59;;;11.33;100.00
49877;BME280;35771;48.978;9.294;2022-09-30T10:00:49;98497.72;;;11.30;100.00
49877;BME280;35771;48.978;9.294;2022-09-30T10:03:35;98477.69;;;11.38;99.28
49877;BME280;35771;48.978;9.294;2022-09-30T10:06:04;98475.56;;;11.40;99.95
49877;BME280;35771;48.978;9.294;2022-09-30T10:08:33;98487.97;;;11.56;97.52
49877;BME280;35771;48.978;9.294;2022-09-30T10:11:01;98477.25;;;11.55;94.07
49877;BME280;35771;48.978;9.294;2022-09-30T10:13:30;98497.16;;;11.75;96.51
49877;BME280;35771;48.978;9.294;2022-09-30T10:16:00;98483.16;;;11.72;92.33
49877;BME280;35771;48.978;9.294;2022-09-30T10:18:29;98498.63;;;11.84;93.20
49877;BME280;35771;48.978;9.294;2022-09-30T10:20:58;98488.38;;;11.73;89.54
49877;BME280;35771;48.978;9.294;2022-09-30T10:23:28;98507.88;;;11.83;89.59
49877;BME280;35771;48.978;9.294;2022-09-30T10:26:02;98503.28;;;11.97;91.58
49877;BME280;35771;48.978;9.294;2022-09-30T10:28:32;98514.81;;;12.19;87.75
49877;BME280;35771;48.978;9.294;2022-09-30T10:31:11;98503.84;;;12.33;86.49
49877;BME280;35771;48.978;9.294;2022-09-30T10:33:42;98502.81;;;12.41;84.56
49877;BME280;35771;48.978;9.294;2022-09-30T10:36:13;98472.63;;;12.35;84.74
49877;BME280;35771;48.978;9.294;2022-09-30T10:38:48;98480.16;;;12.47;81.36
49877;BME280;35771;48.978;9.294;2022-09-30T10:41:21;98486.00;;;12.57;81.50
49877;BME280;35771;48.978;9.294;2022-09-30T10:43:51;98489.47;;;12.78;78.24
49877;BME280;35771;48.978;9.294;2022-09-30T10:46:22;98499.75;;;12.89;75.69
49877;BME280;35771;48.978;9.294;2022-09-30T10:48:51;98533.22;;;13.09;77.59
49877;BME280;35771;48.978;9.294;2022-09-30T10:51:25;98510.38;;;13.04;77.16
49877;BME280;35771;48.978;9.294;2022-09-30T10:53:53;98510.38;;;12.97;75.82
49877;BME280;35771;48.978;9.294;2022-09-30T10:56:42;98521.84;;;13.19;77.74
49877;BME280;35771;48.978;9.294;2022-09-30T10:59:29;98512.69;;;13.00;71.37
49877;BME280;35771;48.978;9.294;2022-09-30T11:02:03;98508.44;;;13.11;72.07
49877;BME280;35771;48.978;9.294;2022-09-30T11:04:35;98509.00;;;13.26;72.43
49877;BME280;35771;48.978;9.294;2022-09-30T11:07:12;98523.47;;;13.34;70.35
49877;BME280;35771;48.978;9.294;2022-09-30T11:09:46;98501.63;;;13.34;73.96
49877;BME280;35771;48.978;9.294;2022-09-30T11:12:20;98503.00;;;13.50;71.94
49877;BME280;35771;48.978;9.294;2022-09-30T11:14:56;98495.38;;;13.58;71.09
49877;BME280;35771;48.978;9.294;2022-09-30T11:17:32;98510.38;;;13.74;68.83
49877;BME280;35771;48.978;9.294;2022-09-30T11:20:13;98496.22;;;13.59;68.78
49877;BME280;35771;48.978;9.294;2022-09-30T11:22:45;98513.75;;;13.76;70.48
49877;BME280;35771;48.978;9.294;2022-09-30T11:25:16;98519.38;;;14.07;68.56
49877;BME280;35771;48.978;9.294;2022-09-30T11:27:57;98492.13;;;14.00;67.68
49877;BME280;35771;48.978;9.294;2022-09-30T11:30:32;98511.41;;;14.30;64.44
49877;BME280;35771;48.978;9.294;2022-09-30T11:33:21;98491.81;;;14.33;63.02
49877;BME280;35771;48.978;9.294;2022-09-30T11:35:57;98512.69;;;14.46;61.57
49877;BME280;35771;48.978;9.294;2022-09-30T11:38:51;98511.69;;;14.66;61.08
49877;BME280;35771;48.978;9.294;2022-09-30T11:41:23;98501.38;;;14.68;58.77
49877;BME280;35771;48.978;9.294;2022-09-30T11:44:00;98497.09;;;14.72;59.97
49877;BME280;35771;48.978;9.294;2022-09-30T11:46:44;98507.38;;;14.95;58.03
49877;BME280;35771;48.978;9.294;2022-09-30T11:49:42;98509.63;;;14.98;59.06
49877;BME280;35771;48.978;9.294;2022-09-30T11:52:18;98496.09;;;15.03;57.45
49877;BME280;35771;48.978;9.294;2022-09-30T11:55:02;98499.25;;;15.19;59.84
49877;BME280;35771;48.978;9.294;2022-09-30T11:57:36;98495.75;;;15.30;57.76
49877;BME280;35771;48.978;9.294;2022-09-30T12:00:12;98513.78;;;15.50;58.08
49877;BME280;35771;48.978;9.294;2022-09-30T12:02:42;98524.75;;;15.50;56.62
49877;BME280;35771;48.978;9.294;2022-09-30T12:05:16;98521.13;;;15.68;56.00
49877;BME280;35771;48.978;9.294;2022-09-30T12:07:46;98513.97;;;15.67;56.28
49877;BME280;35771;48.978;9.294;2022-09-30T12:10:18;98501.75;;;15.81;55.70
49877;BME280;35771;48.978;9.294;2022-09-30T12:12:49;98502.00;;;15.80;53.18
49877;BME280;35771;48.978;9.294;2022-09-30T12:15:20;98483.19;;;15.53;53.56
49877;BME280;35771;48.978;9.294;2022-09-30T12:17:53;98491.28;;;15.48;54.84
49877;BME280;35771;48.978;9.294;2022-09-30T12:20:26;98487.19;;;15.69;55.55
49877;BME280;35771;48.978;9.294;2022-09-30T12:22:59;98495.41;;;15.69;52.44
49877;BME280;35771;48.978;9.294;2022-09-30T12:25:35;98491.38;;;15.83;54.13
49877;BME280;35771;48.978;9.294;2022-09-30T12:28:07;98488.47;;;15.66;51.46
49877;BME280;35771;48.978;9.294;2022-09-30T12:30:59;98498.91;;;15.88;53.09
49877;BME280;35771;48.978;9.294;2022-09-30T12:33:45;98482.69;;;15.86;51.96
49877;BME280;35771;48.978;9.294;2022-09-30T12:36:29;98494.06;;;16.02;53.64
49877;BME280;35771;48.978;9.294;2022-09-30T12:42:19;98500.50;;;16.19;50.70
49877;BME280;35771;48.978;9.294;2022-09-30T12:45:15;98505.88;;;16.14;50.86
49877;BME280;35771;48.978;9.294;2022-09-30T12:47:46;98482.13;;;15.96;48.28
49877;BME280;35771;48.978;9.294;2022-09-30T12:50:16;98503.59;;;15.99;48.86
49877;BME280;35771;48.978;9.294;2022-09-30T12:52:46;98501.22;;;16.26;49.68
49877;BME280;35771;48.978;9.294;2022-09-30T12:55:21;98498.09;;;16.35;50.36
49877;BME280;35771;48.978;9.294;2022-09-30T12:57:51;98490.13;;;16.09;50.66
49877;BME280;35771;48.978;9.294;2022-09-30T13:00:21;98491.56;;;16.24;53.56
49877;BME280;35771;48.978;9.294;2022-09-30T13:02:53;98488.22;;;16.34;50.48
49877;BME280;35771;48.978;9.294;2022-09-30T13:05:45;98525.19;;;16.31;48.61
49877;BME280;35771;48.978;9.294;2022-09-30T13:08:44;98504.56;;;16.40;50.08
49877;BME280;35771;48.978;9.294;2022-09-30T13:11:36;98522.78;;;16.58;49.88
49877;BME280;35771;48.978;9.294;2022-09-30T13:14:17;98513.03;;;16.51;47.10
49877;BME280;35771;48.978;9.294;2022-09-30T13:19:51;98513.50;;;16.48;47.77
49877;BME280;35771;48.978;9.294;2022-09-30T13:22:57;98492.50;;;16.53;46.02
49877;BME280;35771;48.978;9.294;2022-09-30T13:25:25;98504.31;;;16.54;44.76
49877;BME280;35771;48.978;9.294;2022-09-30T13:28:25;98494.88;;;16.38;45.22
49877;BME280;35771;48.978;9.294;2022-09-30T13:31:13;98491.22;;;16.44;45.21
49877;BME280;35771;48.978;9.294;2022-09-30T13:33:44;98497.75;;;16.55;45.97
49877;BME280;35771;48.978;9.294;2022-09-30T13:36:26;98509.66;;;16.72;45.66
49877;BME280;35771;48.978;9.294;2022-09-30T13:39:16;98495.00;;;16.67;47.44
49877;BME280;35771;48.978;9.294;2022-09-30T13:41:49;98513.22;;;16.85;48.18
49877;BME280;35771;48.978;9.294;2022-09-30T13:44:27;98510.03;;;16.64;48.76
49877;BME280;35771;48.978;9.294;2022-09-30T13:46:59;98511.34;;;16.38;49.58
49877;BME280;35771;48.978;9.294;2022-09-30T13:49:37;98510.16;;;16.10;49.91
49877;BME280;35771;48.978;9.294;2022-09-30T13:52:07;98485.91;;;15.83;51.00
49877;BME280;35771;48.978;9.294;2022-09-30T13:54:38;98502.44;;;15.77;50.83
49877;BME280;35771;48.978;9.294;2022-09-30T13:57:18;98498.56;;;15.84;52.50
49877;BME280;35771;48.978;9.294;2022-09-30T13:59:53;98509.88;;;15.88;49.96
49877;BME280;35771;48.978;9.294;2022-09-30T14:05:58;98525.88;;;16.15;50.48
49877;BME280;35771;48.978;9.294;2022-09-30T14:08:46;98510.41;;;16.20;49.45
49877;BME280;35771;48.978;9.294;2022-09-30T14:11:55;98502.28;;;16.25;50.51
49877;BME280;35771;48.978;9.294;2022-09-30T14:17:46;98514.56;;;16.11;53.10
49877;BME280;35771;48.978;9.294;2022-09-30T14:20:33;98505.34;;;15.93;54.24
49877;BME280;35771;48.978;9.294;2022-09-30T14:23:02;98527.28;;;15.93;56.08
49877;BME280;35771;48.978;9.294;2022-09-30T14:25:32;98516.53;;;15.80;57.49
49877;BME280;35771;48.978;9.294;2022-09-30T14:28:08;98528.34;;;15.92;56.09
49877;BME280;35771;48.978;9.294;2022-09-30T14:30:39;98519.72;;;15.77;55.86
49877;BME280;35771;48.978;9.294;2022-09-30T14:33:10;98524.16;;;15.78;54.77
49877;BME280;35771;48.978;9.294;2022-09-30T14:35:38;98511.97;;;15.74;54.36
49877;BME280;35771;48.978;9.294;2022-09-30T14:38:08;98518.09;;;15.88;53.90
49877;BME280;35771;48.978;9.294;2022-09-30T14:40:41;98515.00;;;15.84;53.72
49877;BME280;35771;48.978;9.294;2022-09-30T14:43:15;98528.56;;;15.79;54.43
49877;BME280;35771;48.978;9.294;2022-09-30T14:45:50;98529.00;;;15.76;53.64
49877;BME280;35771;48.978;9.294;2022-09-30T14:48:22;98540.38;;;15.80;54.07
49877;BME280;35771;48.978;9.294;2022-09-30T14:50:57;98529.09;;;15.69;54.24
49877;BME280;35771;48.978;9.294;2022-09-30T14:53:27;98512.16;;;15.61;55.33
49877;BME280;35771;48.978;9.294;2022-09-30T14:55:54;98539.94;;;15.76;54.04
49877;BME280;35771;48.978;9.294;2022-09-30T14:58:23;98535.97;;;15.90;54.65
49877;BME280;35771;48.978;9.294;2022-09-30T15:01:03;98528.56;;;15.79;52.37
49877;BME280;35771;48.978;9.294;2022-09-30T15:03:33;98527.03;;;15.83;53.16
49877;BME280;35771;48.978;9.294;2022-09-30T15:06:00;98539.47;;;15.98;53.98
49877;BME280;35771;48.978;9.294;2022-09-30T15:08:27;98531.22;;;15.86;53.91
49877;BME280;35771;48.978;9.294;2022-09-30T15:10:55;98532.72;;;15.82;51.79
49877;BME280;35771;48.978;9.294;2022-09-30T15:13:24;98506.69;;;15.61;52.37
49877;BME280;35771;48.978;9.294;2022-09-30T15:15:52;98501.53;;;15.52;51.25
49877;BME280;35771;48.978;9.294;2022-09-30T15:18:29;98519.28;;;15.50;53.14
49877;BME280;35771;48.978;9.294;2022-09-30T15:20:59;98534.88;;;15.49;52.10
49877;BME280;35771;48.978;9.294;2022-09-30T15:23:29;98522.88;;;15.32;52.69
49877;BME280;35771;48.978;9.294;2022-09-30T15:25:56;98528.25;;;15.27;52.20
49877;BME280;35771;48.978;9.294;2022-09-30T15:28:24;98522.53;;;15.28;51.89
49877;BME280;35771;48.978;9.294;2022-09-30T15:30:51;98525.75;;;15.37;51.00
49877;BME280;35771;48.978;9.294;2022-09-30T15:33:21;98520.91;;;15.39;51.67
49877;BME280;35771;48.978;9.294;2022-09-30T15:35:50;98512.91;;;15.37;51.58
49877;BME280;35771;48.978;9.294;2022-09-30T15:38:22;98512.47;;;15.40;53.34
49877;BME280;35771;48.978;9.294;2022-09-30T15:40:55;98515.13;;;15.29;52.18
49877;BME280;35771;48.978;9.294;2022-09-30T15:43:30;98508.69;;;15.23;52.26
49877;BME280;35771;48.978;9.294;2022-09-30T15:46:18;98513.44;;;15.58;52.18
49877;BME280;35771;48.978;9.294;2022-09-30T15:48:46;98535.88;;;15.85;53.80
49877;BME280;35771;48.978;9.294;2022-09-30T15:51:32;98535.00;;;15.85;53.49
49877;BME280;35771;48.978;9.294;2022-09-30T15:54:01;98523.06;;;15.79;53.86
49877;BME280;35771;48.978;9.294;2022-09-30T15:56:32;98526.78;;;15.85;54.53
49877;BME280;35771;48.978;9.294;2022-09-30T15:59:01;98529.75;;;15.83;52.49
49877;BME280;35771;48.978;9.294;2022-09-30T16:01:33;98538.69;;;15.79;53.41
49877;BME280;35771;48.978;9.294;2022-09-30T16:04:03;98521.31;;;15.54;52.95
49877;BME280;35771;48.978;9.294;2022-09-30T16:06:36;98543.16;;;15.61;52.33
49877;BME280;35771;48.978;9.294;2022-09-30T16:09:19;98535.69;;;15.19;54.50
49877;BME280;35771;48.978;9.294;2022-09-30T16:11:56;98549.22;;;15.14;54.29
49877;BME280;35771;48.978;9.294;2022-09-30T16:14:26;98526.28;;;14.97;54.92
49877;BME280;35771;48.978;9.294;2022-09-30T16:16:55;98556.22;;;14.92;56.50
49877;BME280;35771;48.978;9.294;2022-09-30T16:19:23;98527.72;;;14.62;55.73
49877;BME280;35771;48.978;9.294;2022-09-30T16:21:52;98541.06;;;14.52;57.09
49877;BME280;35771;48.978;9.294;2022-09-30T16:24:41;98560.44;;;14.50;57.51
49877;BME280;35771;48.978;9.294;2022-09-30T16:27:20;98540.41;;;14.31;58.04
49877;BME280;35771;48.978;9.294;2022-09-30T16:29:47;98558.75;;;14.49;57.80
49877;BME280;35771;48.978;9.294;2022-09-30T16:32:14;98532.19;;;14.31;57.26
49877;BME280;35771;48.978;9.294;2022-09-30T16:34:40;98546.31;;;14.28;59.96
49877;BME280;35771;48.978;9.294;2022-09-30T16:37:11;98531.00;;;14.02;61.26
49877;BME280;35771;48.978;9.294;2022-09-30T16:39:39;98539.28;;;13.89;62.65
49877;BME280;35771;48.978;9.294;2022-09-30T16:42:05;98566.84;;;13.87;64.19
49877;BME280;35771;48.978;9.294;2022-09-30T16:44:32;98562.94;;;13.76;66.38
49877;BME280;35771;48.978;9.294;2022-09-30T16:46:59;98562.03;;;13.51;68.86
49877;BME280;35771;48.978;9.294;2022-09-30T16:49:26;98532.53;;;13.21;70.33
49877;BME280;35771;48.978;9.294;2022-09-30T16:51:53;98553.34;;;13.22;70.87
49877;BME280;35771;48.978;9.294;2022-09-30T16:54:21;98549.38;;;13.11;72.51
49877;BME280;35771;48.978;9.294;2022-09-30T16:56:48;98553.81;;;12.99;73.48
49877;BME280;35771;48.978;9.294;2022-09-30T16:59:16;98563.13;;;12.84;73.85
49877;BME280;35771;48.978;9.294;2022-09-30T17:01:43;98542.63;;;12.42;75.79
49877;BME280;35771;48.978;9.294;2022-09-30T17:04:10;98562.59;;;12.42;76.23
49877;BME280;35771;48.978;9.294;2022-09-30T17:06:37;98544.56;;;12.28;76.34
49877;BME280;35771;48.978;9.294;2022-09-30T17:09:04;98536.19;;;12.09;76.05
49877;BME280;35771;48.978;9.294;2022-09-30T17:11:34;98552.31;;;11.97;78.21
49877;BME280;35771;48.978;9.294;2022-09-30T17:14:03;98563.78;;;11.86;81.17
49877;BME280;35771;48.978;9.294;2022-09-30T17:16:31;98547.91;;;11.96;83.33
49877;BME280;35771;48.978;9.294;2022-09-30T17:18:58;98557.28;;;11.67;85.99
49877;BME280;35771;48.978;9.294;2022-09-30T17:21:26;98550.75;;;11.41;87.90
49877;BME280;35771;48.978;9.294;2022-09-30T17:23:53;98570.59;;;11.28;89.39
49877;BME280;35771;48.978;9.294;2022-09-30T17:26:20;98580.38;;;11.23;90.45
49877;BME280;35771;48.978;9.294;2022-09-30T17:28:48;98596.69;;;11.16;91.78
49877;BME280;35771;48.978;9.294;2022-09-30T17:31:14;98573.31;;;10.87;92.91
49877;BME280;35771;48.978;9.294;2022-09-30T17:33:41;98579.78;;;10.79;93.61
49877;BME280;35771;48.978;9.294;2022-09-30T17:36:09;98593.44;;;10.92;94.59
49877;BME280;35771;48.978;9.294;2022-09-30T17:38:36;98585.22;;;10.79;95.24
49877;BME280;35771;48.978;9.294;2022-09-30T17:41:04;98588.09;;;10.71;96.08
49877;BME280;35771;48.978;9.294;2022-09-30T17:43:50;98568.72;;;10.52;96.86
49877;BME280;35771;48.978;9.294;2022-09-30T17:46:17;98606.59;;;10.54;98.58
49877;BME280;35771;48.978;9.294;2022-09-30T17:48:48;98594.84;;;10.25;100.00
49877;BME280;35771;48.978;9.294;2022-09-30T17:51:15;98578.38;;;10.05;100.00
49877;BME280;35771;48.978;9.294;2022-09-30T17:53:42;98582.78;;;10.06;100.00
49877;BME280;35771;48.978;9.294;2022-09-30T17:56:14;98583.19;;;10.03;100.00
49877;BME280;35771;48.978;9.294;2022-09-30T17:58:41;98582.19;;;9.89;100.00
49877;BME280;35771;48.978;9.294;2022-09-30T18:01:11;98587.91;;;9.94;100.00
49877;BME280;35771;48.978;9.294;2022-09-30T18:03:38;98571.50;;;9.81;100.00
49877;BME280;35771;48.978;9.294;2022-09-30T18:06:05;98613.19;;;9.95;100.00
49877;BME280;35771;48.978;9.294;2022-09-30T18:08:32;98599.63;;;9.73;100.00
49877;BME280;35771;48.978;9.294;2022-09-30T18:11:00;98589.44;;;9.60;100.00
49877;BME280;35771;48.978;9.294;2022-09-30T18:13:27;98586.44;;;9.70;100.00
49877;BME280;35771;48.978;9.294;2022-09-30T18:15:54;98593.59;;;9.56;100.00
49877;BME280;35771;48.978;9.294;2022-09-30T18:18:25;98599.13;;;9.48;100.00
49877;BME280;35771;48.978;9.294;2022-09-30T18:20:51;98619.53;;;9.44;100.00
49877;BME280;35771;48.978;9.294;2022-09-30T18:23:18;98629.06;;;9.54;100.00
49877;BME280;35771;48.978;9.294;2022-09-30T18:25:45;98615.97;;;9.43;100.00
49877;BME280;35771;48.978;9.294;2022-09-30T18:28:14;98615.91;;;9.36;100.00
49877;BME280;35771;48.978;9.294;2022-09-30T18:30:41;98617.59;;;9.23;100.00
49877;BME280;35771;48.978;9.294;2022-09-30T18:33:09;98619.25;;;9.02;100.00
49877;BME280;35771;48.978;9.294;2022-09-30T18:35:38;98638.47;;;9.07;100.00
49877;BME280;35771;48.978;9.294;2022-09-30T18:38:05;98622.78;;;8.88;100.00
49877;BME280;35771;48.978;9.294;2022-09-30T18:40:32;98629.59;;;8.83;100.00
49877;BME280;35771;48.978;9.294;2022-09-30T18:43:01;98625.50;;;8.73;100.00
49877;BME280;35771;48.978;9.294;2022-09-30T18:45:30;98667.56;;;8.83;100.00
49877;BME280;35771;48.978;9.294;2022-09-30T18:47:59;98664.53;;;8.63;100.00
49877;BME280;35771;48.978;9.294;2022-09-30T18:50:28;98643.75;;;8.41;100.00
49877;BME280;35771;48.978;9.294;2022-09-30T18:52:56;98648.94;;;8.27;100.00
49877;BME280;35771;48.978;9.294;2022-09-30T18:55:25;98648.47;;;8.24;100.00
49877;BME280;35771;48.978;9.294;2022-09-30T18:57:52;98658.25;;;8.25;100.00
49877;BME280;35771;48.978;9.294;2022-09-30T19:00:19;98670.22;;;8.30;100.00
49877;BME280;35771;48.978;9.294;2022-09-30T19:02:46;98662.06;;;8.15;100.00
49877;BME280;35771;48.978;9.294;2022-09-30T19:05:13;98661.22;;;8.15;100.00
49877;BME280;35771;48.978;9.294;2022-09-30T19:07:40;98663.75;;;8.17;100.00
49877;BME280;35771;48.978;9.294;2022-09-30T19:10:09;98688.78;;;8.42;100.00
49877;BME280;35771;48.978;9.294;2022-09-30T19:12:38;98659.75;;;8.27;100.00
49877;BME280;35771;48.978;9.294;2022-09-30T19:15:10;98668.22;;;8.09;100.00
49877;BME280;35771;48.978;9.294;2022-09-30T19:17:37;98670.19;;;8.15;100.00
49877;BME280;35771;48.978;9.294;2022-09-30T19:20:05;98658.53;;;8.15;100.00
49877;BME280;35771;48.978;9.294;2022-09-30T19:22:32;98663.03;;;8.23;100.00
49877;BME280;35771;48.978;9.294;2022-09-30T19:25:01;98680.97;;;8.24;100.00
49877;BME280;35771;48.978;9.294;2022-09-30T19:27:30;98655.69;;;7.85;100.00
49877;BME280;35771;48.978;9.294;2022-09-30T19:29:57;98658.16;;;7.72;100.00
49877;BME280;35771;48.978;9.294;2022-09-30T19:32:24;98680.38;;;7.90;100.00
49877;BME280;35771;48.978;9.294;2022-09-30T19:34:53;98668.41;;;7.85;100.00
49877;BME280;35771;48.978;9.294;2022-09-30T19:37:22;98645.88;;;7.84;100.00
49877;BME280;35771;48.978;9.294;2022-09-30T19:39:49;98640.44;;;7.92;100.00
49877;BME280;35771;48.978;9.294;2022-09-30T19:42:16;98646.75;;;7.85;100.00
49877;BME280;35771;48.978;9.294;2022-09-30T19:44:44;98645.31;;;7.74;100.00
49877;BME280;35771;48.978;9.294;2022-09-30T19:47:10;98648.69;;;7.68;100.00
49877;BME280;35771;48.978;9.294;2022-09-30T19:49:37;98675.84;;;7.83;100.00
49877;BME280;35771;48.978;9.294;2022-09-30T19:52:03;98643.97;;;7.70;100.00
49877;BME280;35771;48.978;9.294;2022-09-30T19:54:30;98666.41;;;7.78;100.00
49877;BME280;35771;48.978;9.294;2022-09-30T19:56:56;98664.41;;;7.72;100.00
49877;BME280;35771;48.978;9.294;2022-09-30T19:59:23;98632.31;;;7.92;100.00
49877;BME280;35771;48.978;9.294;2022-09-30T20:01:51;98630.69;;;7.83;100.00
49877;BME280;35771;48.978;9.294;2022-09-30T20:04:17;98655.69;;;7.85;100.00
49877;BME280;35771;48.978;9.294;2022-09-30T20:06:45;98668.22;;;7.86;100.00
49877;BME280;35771;48.978;9.294;2022-09-30T20:09:11;98648.41;;;7.86;100.00
49877;BME280;35771;48.978;9.294;2022-09-30T20:11:38;98646.84;;;7.91;100.00
49877;BME280;35771;48.978;9.294;2022-09-30T20:14:06;98652.88;;;8.02;100.00
49877;BME280;35771;48.978;9.294;2022-09-30T20:16:52;98630.31;;;7.63;100.00
49877;BME280;35771;48.978;9.294;2022-09-30T20:19:19;98625.06;;;7.61;100.00
49877;BME280;35771;48.978;9.294;2022-09-30T20:21:47;98642.59;;;7.74;100.00